Time;durP1;ratioP1;P1;durP2;ratioP2;P2;SDS_P1;SDS_P2;PMS_P1;PMS_P2;Temp;Humidity;BMP_temperature;BMP_pressure;BME280_temperature;BME280_humidity;BME280_pressure;Samples;Min_cycle;Max_cycle;Signal;HPM_P1;HPM_P2
2023/04/11 00:00:33;;;;;;;7.25;1.73;;;9.20;99.90;;;;;;5044703;28;20056;-78
2023/04/11 00:03:02;;;;;;;8.07;2.00;;;9.10;99.90;;;;;;5063382;28;20044;-78
2023/04/11 00:05:30;;;;;;;8.00;1.90;;;9.10;99.90;;;;;;5026693;28;20051;-78
2023/04/11 00:07:56;;;;;;;6.13;1.67;;;9.00;99.90;;;;;;5061323;28;20419;-78
2023/04/11 00:10:21;;;;;;;6.75;1.70;;;8.90;99.90;;;;;;5062727;28;20028;-78
2023/04/11 00:12:47;;;;;;;7.43;1.85;;;8.80;99.90;;;;;;5045711;28;20566;-78
2023/04/11 00:15:15;;;;;;;6.32;1.80;;;8.80;99.90;;;;;;5063866;28;20035;-78
2023/04/11 00:17:44;;;;;;;8.10;1.70;;;8.80;99.90;;;;;;5044846;28;20401;-79
2023/04/11 00:20:11;;;;;;;6.43;1.75;;;8.80;99.90;;;;;;5044110;28;20048;-79
2023/04/11 00:22:38;;;;;;;8.90;2.30;;;8.70;99.90;;;;;;5060239;28;20055;-79
2023/04/11 00:25:04;;;;;;;8.98;1.90;;;8.70;99.90;;;;;;5061314;28;20549;-79
2023/04/11 00:27:30;;;;;;;9.40;2.20;;;8.70;99.90;;;;;;5046180;28;20048;-80
2023/04/11 00:29:56;;;;;;;9.25;2.20;;;8.70;99.90;;;;;;5028232;28;20414;-79
2023/04/11 00:32:26;;;;;;;10.15;2.05;;;8.70;99.90;;;;;;5058935;28;20114;-79
2023/04/11 00:34:52;;;;;;;6.15;1.70;;;8.60;99.90;;;;;;5062857;28;20195;-80
2023/04/11 00:37:21;;;;;;;10.20;2.17;;;8.60;99.90;;;;;;5043012;28;20179;-80
2023/04/11 00:39:51;;;;;;;9.05;2.13;;;8.60;99.90;;;;;;5047369;28;20043;-79
2023/04/11 00:42:19;;;;;;;10.77;2.15;;;8.50;99.90;;;;;;5044868;28;20041;-79
2023/04/11 00:44:45;;;;;;;9.20;2.03;;;8.50;99.90;;;;;;5063047;28;20040;-79
2023/04/11 00:47:11;;;;;;;10.95;2.47;;;8.40;99.90;;;;;;5026684;28;20067;-79
2023/04/11 00:49:39;;;;;;;14.18;3.05;;;8.30;99.90;;;;;;5060855;28;20033;-79
2023/04/11 00:52:05;;;;;;;10.85;2.30;;;8.30;99.90;;;;;;5058678;28;20113;-80
2023/04/11 00:54:32;;;;;;;12.48;2.40;;;8.20;99.90;;;;;;5059209;28;20047;-80
2023/04/11 00:57:01;;;;;;;14.32;2.67;;;8.20;99.90;;;;;;5045420;28;20041;-80
2023/04/11 00:59:28;;;;;;;13.10;2.70;;;8.20;99.90;;;;;;5063121;28;20083;-80
2023/04/11 01:01:55;;;;;;;14.60;2.70;;;8.10;99.90;;;;;;5061008;28;20051;-80
2023/04/11 01:04:21;;;;;;;11.23;2.55;;;8.10;99.90;;;;;;5044275;28;20040;-80
2023/04/11 01:06:52;;;;;;;14.65;3.05;;;8.10;99.90;;;;;;5059092;28;20080;-80
2023/04/11 01:09:24;;;;;;;12.82;3.13;;;8.10;99.90;;;;;;5061798;28;20051;-80
2023/04/11 01:11:50;;;;;;;14.38;2.45;;;8.10;99.90;;;;;;5064240;28;20025;-80
2023/04/11 01:14:19;;;;;;;13.52;2.67;;;8.00;99.90;;;;;;5046290;28;20066;-80
2023/04/11 01:16:47;;;;;;;16.23;3.25;;;8.00;99.90;;;;;;5058034;28;20074;-80
2023/04/11 01:19:18;;;;;;;13.77;2.70;;;8.00;99.90;;;;;;5045260;28;20044;-80
2023/04/11 01:21:46;;;;;;;10.73;2.63;;;8.00;99.90;;;;;;5042366;28;20093;-80
2023/04/11 01:24:12;;;;;;;11.38;2.42;;;7.90;99.90;;;;;;5042262;28;20047;-80
2023/04/11 01:26:38;;;;;;;15.98;3.40;;;7.90;99.90;;;;;;5061064;28;20051;-80
2023/04/11 01:29:04;;;;;;;11.70;2.60;;;7.80;99.90;;;;;;5046513;28;20036;-80
2023/04/11 01:31:31;;;;;;;14.60;2.92;;;7.80;99.90;;;;;;5059148;28;20037;-80
2023/04/11 01:33:58;;;;;;;11.80;2.58;;;7.80;99.90;;;;;;5059967;28;20061;-80
2023/04/11 01:36:23;;;;;;;11.45;2.50;;;7.80;99.90;;;;;;5043772;28;20438;-80
2023/04/11 01:38:49;;;;;;;13.30;3.10;;;7.80;99.90;;;;;;5062517;28;20036;-80
2023/04/11 01:41:17;;;;;;;15.10;2.45;;;7.70;99.90;;;;;;5060586;28;20036;-80
2023/04/11 01:43:43;;;;;;;11.10;2.42;;;7.70;99.90;;;;;;5027083;28;20036;-80
2023/04/11 01:46:10;;;;;;;18.25;2.70;;;7.80;99.90;;;;;;5057431;28;20052;-80
2023/04/11 01:48:37;;;;;;;10.88;2.67;;;7.80;99.90;;;;;;5057458;28;20055;-80
2023/04/11 01:51:02;;;;;;;13.38;2.78;;;7.80;99.90;;;;;;5043520;28;20028;-80
2023/04/11 01:53:28;;;;;;;15.02;2.78;;;7.80;99.90;;;;;;5040786;28;20044;-80
2023/04/11 01:55:54;;;;;;;11.05;2.50;;;7.90;99.90;;;;;;5059120;28;20029;-81
2023/04/11 01:58:20;;;;;;;12.15;2.42;;;7.80;99.90;;;;;;5058385;28;20047;-81
2023/04/11 02:00:45;;;;;;;14.60;2.95;;;7.80;99.90;;;;;;5044415;28;20477;-80
2023/04/11 02:03:11;;;;;;;12.68;2.40;;;7.80;99.90;;;;;;5057937;28;20060;-81
2023/04/11 02:05:38;;;;;;;13.95;2.58;;;8.60;99.90;;;;;;5045185;28;20051;-80
2023/04/11 02:08:04;;;;;;;7.35;1.92;;;7.80;99.90;;;;;;5060660;28;20460;-81
2023/04/11 02:10:30;;;;;;;10.55;2.33;;;7.90;99.90;;;;;;5059495;28;20115;-79
2023/04/11 02:12:56;;;;;;;10.43;2.38;;;7.80;99.90;;;;;;5057022;28;20052;-78
2023/04/11 02:15:21;;;;;;;11.88;2.03;;;7.80;99.90;;;;;;5040495;28;20405;-80
2023/04/11 02:17:48;;;;;;;11.32;2.25;;;7.80;99.90;;;;;;5041483;28;20181;-81
2023/04/11 02:20:14;;;;;;;9.57;2.13;;;7.80;99.90;;;;;;5060602;28;20044;-79
2023/04/11 02:22:40;;;;;;;9.90;2.00;;;7.80;99.90;;;;;;5059975;28;20040;-79
2023/04/11 02:25:07;;;;;;;8.52;1.90;;;7.90;99.90;;;;;;5057109;28;20040;-79
2023/04/11 02:27:33;;;;;;;5.32;1.60;;;7.80;99.90;;;;;;5059916;28;20037;-79
2023/04/11 02:30:00;;;;;;;7.53;1.80;;;7.90;99.90;;;;;;5042643;28;20033;-79
2023/04/11 02:32:26;;;;;;;8.80;1.80;;;7.80;99.90;;;;;;5058066;28;20044;-79
2023/04/11 02:34:52;;;;;;;9.38;1.60;;;7.80;99.90;;;;;;5039675;28;20532;-79
2023/04/11 02:37:18;;;;;;;6.30;1.63;;;7.90;99.90;;;;;;5049700;28;20418;-79
2023/04/11 02:39:44;;;;;;;7.43;1.80;;;7.80;99.90;;;;;;5064697;28;21003;-80
2023/04/11 02:42:13;;;;;;;8.07;1.80;;;7.80;99.90;;;;;;5065114;28;20060;-79
2023/04/11 02:44:39;;;;;;;7.70;1.40;;;7.80;99.90;;;;;;5042841;28;20040;-80
2023/04/11 02:47:04;;;;;;;5.70;1.58;;;7.80;99.90;;;;;;5062579;28;20043;-80
2023/04/11 02:49:30;;;;;;;6.20;1.55;;;7.90;99.90;;;;;;5032103;28;20490;-80
2023/04/11 02:51:56;;;;;;;7.35;1.70;;;7.90;99.90;;;;;;5047603;28;20036;-80
2023/04/11 02:54:21;;;;;;;5.68;1.60;;;7.90;99.90;;;;;;5046871;28;20090;-79
2023/04/11 02:56:47;;;;;;;7.97;1.70;;;7.90;99.90;;;;;;5032925;28;20035;-79
2023/04/11 02:59:13;;;;;;;7.03;1.58;;;7.90;99.90;;;;;;5031123;28;20036;-79
2023/04/11 03:01:38;;;;;;;6.93;1.80;;;7.90;99.90;;;;;;5047973;28;20105;-80
2023/04/11 03:04:06;;;;;;;7.18;1.75;;;7.90;99.90;;;;;;5064717;28;20036;-80
2023/04/11 03:06:32;;;;;;;7.40;1.90;;;7.90;99.90;;;;;;5029651;28;20399;-80
2023/04/11 03:08:57;;;;;;;7.65;1.88;;;7.90;99.90;;;;;;5031177;28;20097;-80
2023/04/11 03:11:23;;;;;;;7.15;1.95;;;7.90;99.90;;;;;;5048991;28;20028;-80
2023/04/11 03:13:49;;;;;;;8.18;1.90;;;7.90;99.90;;;;;;5047894;28;20036;-79
2023/04/11 03:16:15;;;;;;;7.57;1.65;;;7.90;99.90;;;;;;5047392;28;20252;-79
2023/04/11 03:18:40;;;;;;;5.95;1.80;;;7.90;99.90;;;;;;5064164;28;20047;-78
2023/04/11 03:21:09;;;;;;;4.60;1.60;;;7.80;99.90;;;;;;5013380;28;20797;-78
2023/04/11 03:23:35;;;;;;;5.82;1.63;;;7.80;99.90;;;;;;5046497;28;20055;-78
2023/04/11 03:26:01;;;;;;;6.45;1.80;;;7.80;99.90;;;;;;5044762;28;20036;-78
2023/04/11 03:28:27;;;;;;;7.45;2.15;;;7.80;99.90;;;;;;5063209;28;20094;-78
2023/04/11 03:30:53;;;;;;;7.82;1.90;;;7.80;99.90;;;;;;5064446;28;20050;-78
2023/04/11 03:33:19;;;;;;;11.55;2.05;;;7.90;99.90;;;;;;5064504;28;20057;-79
2023/04/11 03:35:45;;;;;;;8.73;2.20;;;7.80;99.90;;;;;;5030039;28;20043;-79
2023/04/11 03:38:11;;;;;;;9.75;2.00;;;7.80;99.90;;;;;;5063211;28;20055;-79
2023/04/11 03:40:36;;;;;;;8.88;2.08;;;8.00;99.90;;;;;;5046095;28;20113;-79
2023/04/11 03:43:02;;;;;;;9.80;1.98;;;7.80;99.90;;;;;;5045304;28;20040;-79
2023/04/11 03:45:28;;;;;;;8.23;2.08;;;7.80;99.90;;;;;;5030246;28;20037;-79
2023/04/11 03:47:53;;;;;;;5.88;1.88;;;7.80;99.90;;;;;;5062338;28;20033;-79
2023/04/11 03:50:19;;;;;;;9.98;2.28;;;7.80;99.90;;;;;;5046970;28;20090;-79
2023/04/11 03:52:45;;;;;;;9.82;2.00;;;7.80;99.90;;;;;;5060756;28;20037;-79
2023/04/11 03:55:11;;;;;;;8.45;2.38;;;7.80;99.90;;;;;;5045113;28;20119;-80
2023/04/11 03:57:36;;;;;;;7.93;1.80;;;7.80;99.90;;;;;;5045009;28;20044;-80
2023/04/11 04:00:04;;;;;;;10.73;2.20;;;7.80;99.90;;;;;;5061183;28;20044;-80
2023/04/11 04:02:30;;;;;;;11.38;2.42;;;7.80;99.90;;;;;;5045224;28;20033;-79
2023/04/11 04:04:59;;;;;;;9.63;1.95;;;7.80;99.90;;;;;;5061981;28;20035;-78
2023/04/11 04:07:26;;;;;;;11.13;2.30;;;7.80;99.90;;;;;;5046693;28;20098;-79
2023/04/11 04:09:52;;;;;;;8.73;1.90;;;7.80;99.90;;;;;;5013186;28;20032;-80
2023/04/11 04:12:19;;;;;;;10.38;2.47;;;7.80;99.90;;;;;;5046938;28;20040;-79
2023/04/11 04:14:45;;;;;;;11.00;2.50;;;7.80;99.90;;;;;;5030488;28;20041;-80
2023/04/11 04:17:13;;;;;;;8.05;2.13;;;7.80;99.90;;;;;;5062691;28;20037;-80
2023/04/11 04:19:39;;;;;;;12.43;2.30;;;7.80;99.90;;;;;;5059540;28;20044;-78
2023/04/11 04:22:10;;;;;;;9.30;2.53;;;7.80;99.90;;;;;;5045096;28;20500;-80
2023/04/11 04:24:37;;;;;;;11.00;2.70;;;7.90;99.90;;;;;;5062007;28;20052;-79
2023/04/11 04:27:07;;;;;;;9.77;2.25;;;7.80;99.90;;;;;;5043008;28;20037;-80
2023/04/11 04:29:37;;;;;;;11.18;2.30;;;7.80;99.90;;;;;;5061788;28;20044;-80
2023/04/11 04:32:12;;;;;;;10.93;2.70;;;7.90;99.90;;;;;;5062517;28;20044;-80
2023/04/11 04:34:45;;;;;;;11.80;2.60;;;7.90;99.90;;;;;;5044448;28;20052;-79
2023/04/11 04:37:21;;;;;;;12.85;3.30;;;7.90;99.90;;;;;;5042799;28;20048;-79
2023/04/11 04:39:55;;;;;;;13.30;3.13;;;7.90;99.90;;;;;;5060775;28;20052;-79
2023/04/11 04:42:24;;;;;;;10.40;2.35;;;7.90;99.90;;;;;;5059641;28;20203;-79
2023/04/11 04:44:50;;;;;;;11.75;2.72;;;7.90;99.90;;;;;;5045354;28;20100;-80
2023/04/11 04:47:17;;;;;;;17.02;3.03;;;7.90;99.90;;;;;;5060320;28;20116;-80
2023/04/11 04:49:43;;;;;;;12.13;2.92;;;7.90;99.90;;;;;;5059936;28;20051;-78
2023/04/11 04:52:09;;;;;;;13.80;2.90;;;7.90;99.90;;;;;;5028729;28;20037;-79
2023/04/11 04:54:35;;;;;;;11.68;2.90;;;7.90;99.90;;;;;;5043767;28;20036;-79
2023/04/11 04:57:01;;;;;;;12.82;2.95;;;7.90;99.90;;;;;;5027341;28;20437;-77
2023/04/11 04:59:27;;;;;;;13.85;3.13;;;7.80;99.90;;;;;;5059232;28;20044;-78
2023/04/11 05:01:53;;;;;;;14.65;3.10;;;7.80;99.90;;;;;;5043035;28;20032;-78
2023/04/11 05:04:19;;;;;;;14.77;3.88;;;7.80;99.90;;;;;;5041936;28;20040;-77
2023/04/11 05:06:45;;;;;;;12.77;3.58;;;7.80;99.90;;;;;;5063721;28;20045;-78
2023/04/11 05:09:11;;;;;;;12.02;3.03;;;7.80;99.90;;;;;;5053985;28;20522;-78
2023/04/11 05:11:37;;;;;;;12.52;2.85;;;7.80;99.90;;;;;;5061138;28;20040;-78
2023/04/11 05:14:02;;;;;;;10.02;2.85;;;8.10;99.90;;;;;;5044218;28;20067;-78
2023/04/11 05:16:28;;;;;;;10.57;3.00;;;7.80;99.90;;;;;;5060311;28;20101;-77
2023/04/11 05:18:54;;;;;;;14.68;3.50;;;7.80;99.90;;;;;;5044692;28;21508;-77
2023/04/11 05:21:21;;;;;;;10.27;2.60;;;7.80;99.90;;;;;;5044813;28;20116;-78
2023/04/11 05:23:47;;;;;;;14.77;3.38;;;9.10;99.90;;;;;;5044519;28;20032;-77
2023/04/11 05:26:13;;;;;;;12.98;3.03;;;7.90;99.90;;;;;;5056934;28;20103;-77
2023/04/11 05:28:38;;;;;;;11.98;2.55;;;7.90;99.90;;;;;;5045274;28;20042;-76
2023/04/11 05:31:05;;;;;;;11.90;3.30;;;7.90;99.90;;;;;;5045563;28;20067;-76
2023/04/11 05:33:31;;;;;;;12.50;3.08;;;7.90;99.90;;;;;;5060127;28;20094;-77
2023/04/11 05:35:56;;;;;;;13.80;2.80;;;7.90;99.90;;;;;;5045673;28;20049;-77
2023/04/11 05:38:22;;;;;;;13.60;3.08;;;7.90;99.90;;;;;;5042637;28;20045;-76
2023/04/11 05:40:48;;;;;;;12.98;2.88;;;7.90;99.90;;;;;;5023547;28;20048;-76
2023/04/11 05:43:14;;;;;;;15.70;3.35;;;7.90;99.90;;;;;;5044579;28;20112;-76
2023/04/11 05:45:40;;;;;;;12.65;3.00;;;7.90;99.90;;;;;;5039816;28;20498;-77
2023/04/11 05:48:07;;;;;;;14.68;2.95;;;7.90;99.90;;;;;;5056441;28;20041;-77
2023/04/11 05:50:36;;;;;;;11.68;2.95;;;7.90;99.90;;;;;;5033161;28;20094;-76
2023/04/11 05:53:02;;;;;;;12.82;3.08;;;7.90;99.90;;;;;;5050771;28;20032;-76
2023/04/11 05:55:28;;;;;;;13.10;2.85;;;7.90;99.90;;;;;;5067967;28;20063;-77
2023/04/11 05:57:54;;;;;;;12.90;2.78;;;7.80;99.90;;;;;;5068453;28;20047;-77
2023/04/11 06:00:20;;;;;;;17.30;3.00;;;7.90;99.90;;;;;;5067794;28;20347;-78
2023/04/11 06:02:47;;;;;;;15.38;3.03;;;7.80;99.90;;;;;;5050421;28;20109;-78
2023/04/11 06:05:15;;;;;;;13.65;3.22;;;8.10;99.90;;;;;;5052834;28;20078;-77
2023/04/11 06:07:41;;;;;;;12.48;3.15;;;7.80;99.90;;;;;;5031184;28;20387;-77
2023/04/11 06:10:08;;;;;;;13.65;3.40;;;7.80;99.90;;;;;;5032199;28;20049;-77
2023/04/11 06:12:35;;;;;;;14.85;3.38;;;7.90;99.90;;;;;;5057598;28;20044;-78
2023/04/11 06:15:01;;;;;;;16.10;3.38;;;7.90;99.90;;;;;;5042606;28;20076;-77
2023/04/11 06:17:27;;;;;;;12.15;3.20;;;7.90;99.90;;;;;;5052042;28;20059;-78
2023/04/11 06:19:52;;;;;;;10.82;2.60;;;7.90;99.90;;;;;;5035418;28;20498;-77
2023/04/11 06:22:18;;;;;;;9.73;2.50;;;7.90;99.90;;;;;;5051769;28;20037;-77
2023/04/11 06:24:44;;;;;;;10.77;2.90;;;7.90;99.90;;;;;;5040553;28;20052;-76
2023/04/11 06:27:10;;;;;;;9.32;2.60;;;7.80;99.90;;;;;;5050681;28;20045;-77
2023/04/11 06:29:37;;;;;;;10.07;2.80;;;7.90;99.90;;;;;;5051913;28;20467;-78
2023/04/11 06:32:03;;;;;;;10.88;3.00;;;7.90;99.90;;;;;;5018402;28;20476;-78
2023/04/11 06:34:29;;;;;;;11.65;3.17;;;8.00;99.90;;;;;;5051495;28;20044;-78
2023/04/11 06:36:54;;;;;;;15.52;3.55;;;8.10;99.90;;;;;;5047823;28;20040;-78
2023/04/11 06:39:20;;;;;;;12.35;3.33;;;8.20;99.90;;;;;;5034949;28;20160;-78
2023/04/11 06:41:47;;;;;;;15.50;3.13;;;8.20;99.90;;;;;;5034466;28;20106;-78
2023/04/11 06:44:13;;;;;;;17.58;3.80;;;8.30;99.90;;;;;;5051315;28;20045;-78
2023/04/11 06:46:39;;;;;;;16.98;4.22;;;8.30;99.90;;;;;;5026650;28;20135;-78
2023/04/11 06:49:07;;;;;;;15.13;3.17;;;8.50;99.90;;;;;;5054777;28;20050;-78
2023/04/11 06:51:34;;;;;;;12.50;2.90;;;8.20;99.90;;;;;;5054665;28;20040;-76
2023/04/11 06:54:01;;;;;;;13.38;3.10;;;8.20;99.90;;;;;;5054353;28;20033;-77
2023/04/11 06:56:27;;;;;;;12.90;2.97;;;8.10;99.90;;;;;;5070226;28;20364;-76
2023/04/11 06:58:52;;;;;;;11.82;3.40;;;8.10;99.90;;;;;;5070874;28;20087;-76
2023/04/11 07:01:19;;;;;;;14.38;3.10;;;8.10;99.90;;;;;;5054410;28;20032;-76
2023/04/11 07:03:48;;;;;;;15.57;3.72;;;8.20;99.90;;;;;;5071072;28;20505;-76
2023/04/11 07:06:15;;;;;;;16.70;4.22;;;8.20;99.90;;;;;;5070779;28;20124;-76
2023/04/11 07:08:41;;;;;;;14.85;3.40;;;8.20;99.90;;;;;;5069393;28;20149;-76
2023/04/11 07:11:07;;;;;;;16.35;3.35;;;8.30;99.90;;;;;;5054144;28;20455;-76
2023/04/11 07:13:32;;;;;;;17.88;3.50;;;8.30;99.90;;;;;;5054253;28;20130;-76
2023/04/11 07:15:58;;;;;;;14.55;3.20;;;8.40;99.90;;;;;;5037369;28;20032;-76
2023/04/11 07:18:26;;;;;;;14.68;2.92;;;8.40;99.90;;;;;;5053189;28;20228;-76
2023/04/11 07:20:52;;;;;;;13.52;3.65;;;8.50;99.90;;;;;;5069795;28;20048;-77
2023/04/11 07:23:17;;;;;;;14.23;3.33;;;8.50;99.90;;;;;;5054074;28;20051;-77
2023/04/11 07:25:43;;;;;;;18.10;3.55;;;8.60;99.90;;;;;;5036959;28;20048;-77
2023/04/11 07:28:10;;;;;;;16.33;3.28;;;8.70;99.90;;;;;;5056759;28;20051;-77
2023/04/11 07:30:36;;;;;;;15.55;3.35;;;8.80;99.90;;;;;;5070122;28;20111;-77
2023/04/11 07:33:02;;;;;;;13.40;2.92;;;8.90;99.90;;;;;;5070626;28;20136;-77
2023/04/11 07:35:29;;;;;;;17.13;2.83;;;8.80;99.90;;;;;;5070258;28;20095;-77
2023/04/11 07:37:56;;;;;;;12.40;2.60;;;8.90;99.90;;;;;;5051877;28;20036;-77
2023/04/11 07:40:22;;;;;;;14.15;2.88;;;8.80;99.90;;;;;;5017697;28;20048;-77
2023/04/11 07:42:47;;;;;;;13.85;3.22;;;8.90;99.90;;;;;;5050305;28;20041;-76
2023/04/11 07:45:13;;;;;;;15.95;3.10;;;9.00;99.90;;;;;;5050026;28;20501;-76
2023/04/11 07:47:39;;;;;;;10.82;2.78;;;9.10;99.90;;;;;;5054502;28;20127;-76
2023/04/11 07:50:06;;;;;;;12.98;3.00;;;9.10;99.90;;;;;;5059178;28;20040;-76
2023/04/11 07:52:31;;;;;;;14.23;2.90;;;9.20;99.90;;;;;;5042077;28;20032;-76
2023/04/11 07:54:57;;;;;;;14.68;2.60;;;9.40;99.90;;;;;;5050101;28;20478;-77
2023/04/11 07:57:23;;;;;;;14.80;3.58;;;9.60;99.90;;;;;;5053026;28;20071;-77
2023/04/11 07:59:49;;;;;;;22.33;4.38;;;9.70;99.90;;;;;;5069793;28;20055;-77
2023/04/11 08:02:14;;;;;;;12.02;3.17;;;9.70;99.90;;;;;;5052938;28;20040;-78
2023/04/11 08:04:40;;;;;;;10.85;2.47;;;9.60;99.90;;;;;;5053057;28;20044;-78
2023/04/11 08:07:06;;;;;;;14.50;3.08;;;9.50;99.90;;;;;;5067715;28;20067;-77
2023/04/11 08:09:33;;;;;;;11.98;3.03;;;9.40;99.90;;;;;;5036545;28;20040;-77
2023/04/11 08:12:00;;;;;;;11.82;3.28;;;9.20;99.90;;;;;;5068830;28;20044;-77
2023/04/11 08:14:26;;;;;;;12.30;2.42;;;9.00;99.90;;;;;;5057831;28;20053;-77
2023/04/11 08:16:52;;;;;;;10.30;2.58;;;8.80;99.90;;;;;;5039511;28;20147;-78
2023/04/11 08:19:18;;;;;;;11.27;2.65;;;8.70;99.90;;;;;;5069751;28;20102;-78
2023/04/11 08:21:44;;;;;;;13.38;2.80;;;8.60;99.90;;;;;;5052679;28;20482;-78
2023/04/11 08:24:09;;;;;;;10.48;2.38;;;8.70;99.90;;;;;;5036188;28;20567;-78
2023/04/11 08:26:35;;;;;;;14.95;2.33;;;8.90;99.90;;;;;;5049513;28;20122;-78
2023/04/11 08:29:02;;;;;;;11.32;2.70;;;8.90;99.90;;;;;;5052849;28;20450;-78
2023/04/11 08:31:28;;;;;;;12.63;2.75;;;9.00;99.90;;;;;;5069295;28;20062;-78
2023/04/11 08:33:54;;;;;;;10.43;2.58;;;9.00;99.90;;;;;;5068424;28;20395;-78
2023/04/11 08:36:20;;;;;;;12.50;2.67;;;8.90;99.90;;;;;;5052698;28;20406;-78
2023/04/11 08:38:46;;;;;;;14.70;2.60;;;8.80;99.90;;;;;;5066904;28;20123;-78
2023/04/11 08:41:13;;;;;;;12.05;2.88;;;8.80;99.90;;;;;;5038000;28;20037;-78
2023/04/11 08:43:39;;;;;;;11.15;2.67;;;8.90;99.90;;;;;;5016612;28;20075;-78
2023/04/11 08:46:10;;;;;;;13.50;2.83;;;9.00;99.90;;;;;;5048737;28;20068;-78
2023/04/11 08:48:37;;;;;;;11.40;2.70;;;9.90;99.90;;;;;;5039201;28;20036;-78
2023/04/11 08:51:02;;;;;;;10.07;2.58;;;9.20;99.90;;;;;;5051721;28;20159;-78
2023/04/11 08:53:29;;;;;;;15.13;3.13;;;9.50;99.90;;;;;;5052292;28;20094;-78
2023/04/11 08:55:55;;;;;;;15.35;2.70;;;9.70;99.90;;;;;;5068840;28;20068;-78
2023/04/11 08:58:21;;;;;;;11.10;2.53;;;9.90;99.90;;;;;;5068224;28;20080;-78
2023/04/11 09:00:47;;;;;;;11.95;2.95;;;10.10;99.90;;;;;;5051698;28;20040;-77
2023/04/11 09:03:15;;;;;;;15.90;3.28;;;10.50;99.90;;;;;;5068976;28;20549;-77
2023/04/11 09:05:43;;;;;;;12.20;2.10;;;10.70;99.90;;;;;;5051495;28;20047;-78
2023/04/11 09:08:11;;;;;;;13.40;2.70;;;10.80;99.90;;;;;;5068423;28;20045;-77
2023/04/11 09:10:38;;;;;;;10.20;2.10;;;10.90;99.90;;;;;;5065333;28;20052;-78
2023/04/11 09:13:24;;;;;;;9.00;1.95;;;10.70;99.90;;;;;;5064903;28;20045;-79
2023/04/11 09:16:07;;;;;;;10.95;2.33;;;10.60;99.90;;;;;;5048417;28;20085;-77
2023/04/11 09:18:38;;;;;;;12.07;2.40;;;10.60;99.90;;;;;;5056090;28;20428;-76
2023/04/11 09:21:06;;;;;;;11.82;2.72;;;10.70;99.90;;;;;;5050011;28;20111;-76
2023/04/11 09:23:32;;;;;;;13.63;2.70;;;10.80;99.90;;;;;;5056658;28;20076;-78
2023/04/11 09:25:58;;;;;;;10.85;2.38;;;10.90;99.90;;;;;;5045199;28;20116;-76
2023/04/11 09:28:24;;;;;;;13.32;2.30;;;10.90;99.90;;;;;;5051534;28;20123;-77
2023/04/11 09:30:54;;;;;;;11.88;2.60;;;11.20;99.90;;;;;;5050399;28;20051;-77
2023/04/11 09:33:23;;;;;;;12.00;2.58;;;11.50;99.90;;;;;;5051349;28;20084;-77
2023/04/11 09:35:51;;;;;;;7.30;1.77;;;11.60;99.90;;;;;;5067845;28;20123;-76
2023/04/11 09:38:31;;;;;;;9.65;2.17;;;11.00;99.90;;;;;;5051773;28;20106;-76
2023/04/11 09:40:58;;;;;;;9.25;2.05;;;10.50;99.90;;;;;;5049230;28;20163;-77
2023/04/11 09:43:24;;;;;;;9.82;2.10;;;10.00;99.90;;;;;;5064843;28;20210;-77
2023/04/11 09:46:10;;;;;;;11.70;2.25;;;9.70;99.90;;;;;;5054486;28;20213;-76
2023/04/11 09:48:37;;;;;;;10.93;2.15;;;9.50;99.90;;;;;;5056503;28;20076;-78
2023/04/11 09:51:05;;;;;;;8.48;2.13;;;9.30;99.90;;;;;;5067817;28;20045;-77
2023/04/11 09:53:34;;;;;;;8.50;1.67;;;9.10;99.90;;;;;;5050638;28;20048;-77
2023/04/11 09:56:00;;;;;;;8.98;2.15;;;9.00;99.90;;;;;;5065021;28;20107;-77
2023/04/11 09:58:30;;;;;;;8.77;2.00;;;9.00;99.90;;;;;;5047642;28;20115;-77
2023/04/11 10:00:58;;;;;;;10.93;2.13;;;9.00;99.90;;;;;;5030747;28;20067;-78
2023/04/11 10:03:25;;;;;;;12.25;2.35;;;9.30;99.90;;;;;;5031698;28;20044;-77
2023/04/11 10:05:55;;;;;;;11.68;2.28;;;9.50;99.90;;;;;;5050082;28;20037;-77
2023/04/11 10:08:34;;;;;;;12.68;2.45;;;9.70;99.90;;;;;;5067728;28;20125;-77
2023/04/11 10:11:02;;;;;;;11.07;1.90;;;9.70;99.90;;;;;;5067970;28;20041;-77
2023/04/11 10:13:34;;;;;;;7.68;1.80;;;9.60;99.90;;;;;;5067786;28;20068;-77
2023/04/11 10:16:12;;;;;;;4.95;1.40;;;9.30;99.90;;;;;;5048843;28;20494;-77
2023/04/11 10:18:53;;;;;;;7.53;1.65;;;9.20;99.90;;;;;;5041353;28;20036;-77
2023/04/11 10:21:45;;;;;;;8.68;1.60;;;9.10;99.90;;;;;;5067323;28;20044;-77
2023/04/11 10:24:13;;;;;;;10.80;2.30;;;9.10;99.90;;;;;;5061614;28;20052;-77
2023/04/11 10:26:49;;;;;;;7.95;1.92;;;9.10;99.90;;;;;;5014465;28;20102;-77
2023/04/11 10:29:27;;;;;;;10.13;2.13;;;9.10;99.90;;;;;;5047484;28;20045;-77
2023/04/11 10:32:21;;;;;;;6.07;1.60;;;9.20;99.90;;;;;;5030830;28;20033;-77
2023/04/11 10:34:50;;;;;;;8.23;1.73;;;9.40;99.90;;;;;;5026558;28;20502;-77
2023/04/11 10:37:16;;;;;;;10.38;2.38;;;9.50;99.90;;;;;;5067288;28;20114;-77
2023/04/11 10:40:00;;;;;;;9.68;2.03;;;9.40;99.90;;;;;;5047855;28;20079;-77
2023/04/11 10:42:27;;;;;;;6.57;1.83;;;9.60;99.90;;;;;;5046207;28;20147;-77
2023/04/11 10:45:12;;;;;;;7.70;1.52;;;9.50;99.90;;;;;;5050807;28;20121;-77
2023/04/11 10:47:38;;;;;;;8.50;1.58;;;9.50;99.90;;;;;;5063076;28;20049;-77
2023/04/11 10:50:24;;;;;;;6.68;1.40;;;9.30;99.90;;;;;;5044998;28;20052;-77
2023/04/11 10:52:54;;;;;;;4.65;1.30;;;9.00;99.90;;;;;;5067704;28;20055;-77
2023/04/11 10:55:21;;;;;;;5.50;1.52;;;8.80;99.90;;;;;;5068017;28;20079;-77
2023/04/11 10:58:08;;;;;;;6.72;1.60;;;8.60;99.90;;;;;;5064847;28;20087;-77
2023/04/11 11:00:48;;;;;;;5.45;1.27;;;8.60;99.90;;;;;;5034053;28;20158;-77
2023/04/11 11:03:18;;;;;;;3.83;1.10;;;8.60;99.90;;;;;;5034897;28;20045;-77
2023/04/11 11:05:44;;;;;;;5.53;1.40;;;8.60;99.90;;;;;;5044125;28;20051;-77
2023/04/11 11:08:10;;;;;;;6.13;1.45;;;8.70;99.90;;;;;;5062413;28;20045;-77
2023/04/11 11:10:41;;;;;;;8.95;2.10;;;8.80;99.90;;;;;;5050381;28;20040;-77
2023/04/11 11:13:08;;;;;;;9.18;1.90;;;9.10;99.90;;;;;;5051057;28;20033;-77
2023/04/11 11:15:37;;;;;;;9.82;1.95;;;9.40;99.90;;;;;;5019747;28;20037;-77
2023/04/11 11:18:08;;;;;;;8.65;2.33;;;9.60;99.90;;;;;;5037943;28;20040;-77
2023/04/11 11:20:36;;;;;;;12.82;2.28;;;9.70;99.90;;;;;;5069013;28;20367;-77
2023/04/11 11:23:04;;;;;;;8.45;2.10;;;9.80;99.90;;;;;;5050837;28;20506;-77
2023/04/11 11:25:30;;;;;;;10.63;2.28;;;9.80;99.90;;;;;;5064930;28;20044;-76
2023/04/11 11:28:04;;;;;;;10.98;2.00;;;9.90;99.90;;;;;;5068612;28;20505;-76
2023/04/11 11:30:30;;;;;;;8.55;1.98;;;10.00;99.90;;;;;;5070149;28;20032;-76
2023/04/11 11:32:57;;;;;;;7.45;1.70;;;10.00;99.90;;;;;;5070474;28;20055;-76
2023/04/11 11:35:24;;;;;;;6.28;1.60;;;10.00;99.90;;;;;;5070309;28;20174;-77
2023/04/11 11:37:53;;;;;;;9.40;1.80;;;10.00;99.90;;;;;;5029209;28;20041;-77
2023/04/11 11:40:21;;;;;;;10.65;2.13;;;10.10;99.90;;;;;;5050047;28;20087;-77
2023/04/11 11:42:48;;;;;;;7.38;1.90;;;10.20;99.90;;;;;;5056142;28;20075;-77
2023/04/11 11:45:19;;;;;;;9.57;2.22;;;10.50;99.90;;;;;;5069963;28;20509;-77
2023/04/11 11:47:47;;;;;;;7.35;2.00;;;10.60;99.90;;;;;;5067917;28;20378;-77
2023/04/11 11:50:27;;;;;;;8.40;1.77;;;10.70;99.90;;;;;;5052941;28;20048;-77
2023/04/11 11:52:53;;;;;;;6.90;1.80;;;10.90;99.90;;;;;;5070102;28;20627;-77
2023/04/11 11:55:21;;;;;;;9.07;1.83;;;11.00;99.90;;;;;;5069889;28;20052;-77
2023/04/11 11:57:48;;;;;;;9.60;1.80;;;11.20;99.90;;;;;;5051076;28;20048;-77
2023/04/11 12:00:22;;;;;;;7.35;2.08;;;11.20;99.90;;;;;;5069852;28;20119;-77
2023/04/11 12:02:51;;;;;;;9.20;1.98;;;11.40;99.90;;;;;;5044491;28;20512;-77
2023/04/11 12:05:17;;;;;;;10.25;1.88;;;11.60;99.90;;;;;;5058266;28;20072;-78
2023/04/11 12:07:43;;;;;;;9.60;2.00;;;11.80;99.90;;;;;;5033035;28;20138;-77
2023/04/11 12:10:13;;;;;;;9.52;2.30;;;12.00;99.90;;;;;;5032897;28;20513;-77
2023/04/11 12:12:41;;;;;;;10.60;2.30;;;12.20;99.90;;;;;;5056114;28;20303;-77
2023/04/11 12:15:12;;;;;;;7.75;2.20;;;12.30;99.90;;;;;;5069889;28;20466;-77
2023/04/11 12:17:38;;;;;;;12.52;2.80;;;12.30;99.90;;;;;;5069282;28;20063;-77
2023/04/11 12:20:06;;;;;;;12.23;2.22;;;12.20;99.90;;;;;;5053354;28;20462;-77
2023/04/11 12:22:32;;;;;;;13.82;2.40;;;11.90;99.90;;;;;;5069788;28;20044;-77
2023/04/11 12:25:07;;;;;;;10.07;2.10;;;10.70;99.90;;;;;;5069738;28;20167;-76
2023/04/11 12:27:35;;;;;;;10.57;2.13;;;9.70;99.90;;;;;;5062791;28;20045;-76
2023/04/11 12:30:02;;;;;;;12.45;2.35;;;9.40;99.90;;;;;;5052962;28;20169;-76
2023/04/11 12:32:29;;;;;;;15.00;2.72;;;9.40;99.90;;;;;;5052265;28;20048;-77
2023/04/11 12:34:55;;;;;;;15.07;2.75;;;9.70;99.90;;;;;;5052487;28;20056;-75
2023/04/11 12:37:21;;;;;;;11.90;2.67;;;10.00;99.90;;;;;;5047066;28;20119;-76
2023/04/11 12:39:47;;;;;;;12.60;2.75;;;10.20;99.90;;;;;;5032823;28;20118;-75
2023/04/11 12:42:12;;;;;;;13.73;2.97;;;10.30;99.90;;;;;;5032038;28;20499;-76
2023/04/11 12:44:38;;;;;;;10.52;1.90;;;10.30;99.90;;;;;;5061689;28;20119;-76
2023/04/11 12:47:04;;;;;;;8.48;2.05;;;10.10;99.90;;;;;;5068621;28;20044;-76
2023/04/11 12:49:29;;;;;;;9.10;2.13;;;9.90;99.90;;;;;;5068547;28;20098;-76